sensor_id;sensor_type;location;lat;lon;timestamp;pressure;altitude;pressure_sealevel;temperature;humidity
11605;BME280;5858;43.076;25.626;2024-02-21T00:00:11;100048.91;;;5.83;100.00
11605;BME280;5858;43.076;25.626;2024-02-21T00:02:38;100015.47;;;5.71;100.00
11605;BME280;5858;43.076;25.626;2024-02-21T00:05:05;99996.91;;;5.40;100.00
11605;BME280;5858;43.076;25.626;2024-02-21T00:07:32;99982.06;;;5.37;100.00
11605;BME280;5858;43.076;25.626;2024-02-21T00:09:59;99968.78;;;5.28;100.00
11605;BME280;5858;43.076;25.626;2024-02-21T00:12:27;100049.56;;;5.75;100.00
11605;BME280;5858;43.076;25.626;2024-02-21T00:14:54;100053.34;;;5.73;100.00
11605;BME280;5858;43.076;25.626;2024-02-21T00:17:21;100043.13;;;5.68;100.00
11605;BME280;5858;43.076;25.626;2024-02-21T00:19:48;100046.00;;;5.65;100.00
11605;BME280;5858;43.076;25.626;2024-02-21T00:22:15;100036.50;;;5.62;100.00
11605;BME280;5858;43.076;25.626;2024-02-21T00:24:42;99988.91;;;5.30;100.00
11605;BME280;5858;43.076;25.626;2024-02-21T00:27:09;100026.38;;;5.47;100.00
11605;BME280;5858;43.076;25.626;2024-02-21T00:29:37;99992.91;;;5.25;100.00
11605;BME280;5858;43.076;25.626;2024-02-21T00:32:05;99990.06;;;5.17;100.00
11605;BME280;5858;43.076;25.626;2024-02-21T00:34:31;99945.69;;;4.88;100.00
11605;BME280;5858;43.076;25.626;2024-02-21T00:36:59;100036.91;;;5.58;100.00
11605;BME280;5858;43.076;25.626;2024-02-21T00:39:25;99918.19;;;4.89;100.00
11605;BME280;5858;43.076;25.626;2024-02-21T00:41:52;100010.47;;;5.47;100.00
11605;BME280;5858;43.076;25.626;2024-02-21T00:44:19;99929.66;;;4.90;100.00
11605;BME280;5858;43.076;25.626;2024-02-21T00:46:48;100031.06;;;5.64;100.00
11605;BME280;5858;43.076;25.626;2024-02-21T00:49:14;99973.88;;;5.20;100.00
11605;BME280;5858;43.076;25.626;2024-02-21T00:51:41;99963.44;;;4.97;100.00
11605;BME280;5858;43.076;25.626;2024-02-21T00:54:09;99975.59;;;5.21;100.00
11605;BME280;5858;43.076;25.626;2024-02-21T00:56:35;100024.00;;;5.44;100.00
11605;BME280;5858;43.076;25.626;2024-02-21T00:59:02;100021.19;;;5.35;100.00
11605;BME280;5858;43.076;25.626;2024-02-21T01:01:29;99904.63;;;4.62;100.00
11605;BME280;5858;43.076;25.626;2024-02-21T01:03:57;99973.44;;;5.15;100.00
11605;BME280;5858;43.076;25.626;2024-02-21T01:06:24;100003.31;;;5.17;100.00
11605;BME280;5858;43.076;25.626;2024-02-21T01:08:51;100016.75;;;5.46;100.00
11605;BME280;5858;43.076;25.626;2024-02-21T01:11:18;100013.38;;;5.44;100.00
11605;BME280;5858;43.076;25.626;2024-02-21T01:13:45;100017.31;;;5.49;100.00
11605;BME280;5858;43.076;25.626;2024-02-21T01:16:12;100019.66;;;5.43;100.00
11605;BME280;5858;43.076;25.626;2024-02-21T01:18:39;99999.69;;;5.38;100.00
11605;BME280;5858;43.076;25.626;2024-02-21T01:21:08;99969.53;;;5.19;100.00
11605;BME280;5858;43.076;25.626;2024-02-21T01:23:35;100018.16;;;5.50;100.00
11605;BME280;5858;43.076;25.626;2024-02-21T01:26:03;99926.59;;;4.94;100.00
11605;BME280;5858;43.076;25.626;2024-02-21T01:28:30;99991.00;;;5.36;100.00
11605;BME280;5858;43.076;25.626;2024-02-21T01:30:57;100016.66;;;5.57;100.00
11605;BME280;5858;43.076;25.626;2024-02-21T01:33:24;100003.19;;;5.39;100.00
11605;BME280;5858;43.076;25.626;2024-02-21T01:35:51;100009.09;;;5.52;100.00
11605;BME280;5858;43.076;25.626;2024-02-21T01:38:19;99940.59;;;5.06;100.00
11605;BME280;5858;43.076;25.626;2024-02-21T01:40:46;99976.75;;;5.07;100.00
11605;BME280;5858;43.076;25.626;2024-02-21T01:43:16;100007.50;;;5.40;100.00
11605;BME280;5858;43.076;25.626;2024-02-21T01:45:48;99989.09;;;5.18;100.00
11605;BME280;5858;43.076;25.626;2024-02-21T01:48:16;99940.91;;;4.82;100.00
11605;BME280;5858;43.076;25.626;2024-02-21T01:50:44;100009.47;;;5.17;100.00
11605;BME280;5858;43.076;25.626;2024-02-21T01:53:13;99934.13;;;4.68;100.00
11605;BME280;5858;43.076;25.626;2024-02-21T01:55:45;100004.97;;;5.08;100.00
11605;BME280;5858;43.076;25.626;2024-02-21T01:58:13;100001.63;;;4.85;100.00
11605;BME280;5858;43.076;25.626;2024-02-21T02:00:41;99982.09;;;4.86;100.00
11605;BME280;5858;43.076;25.626;2024-02-21T02:03:10;99979.00;;;4.81;100.00
11605;BME280;5858;43.076;25.626;2024-02-21T02:05:43;99993.41;;;4.88;100.00
11605;BME280;5858;43.076;25.626;2024-02-21T02:08:10;99878.53;;;4.16;100.00
11605;BME280;5858;43.076;25.626;2024-02-21T02:10:37;100004.16;;;4.87;100.00
11605;BME280;5858;43.076;25.626;2024-02-21T02:13:06;99961.25;;;4.61;100.00
11605;BME280;5858;43.076;25.626;2024-02-21T02:15:42;99970.59;;;4.76;100.00
11605;BME280;5858;43.076;25.626;2024-02-21T02:18:10;99916.34;;;4.38;100.00
11605;BME280;5858;43.076;25.626;2024-02-21T02:20:37;99927.34;;;4.55;100.00
11605;BME280;5858;43.076;25.626;2024-02-21T02:23:07;99983.06;;;4.85;100.00
11605;BME280;5858;43.076;25.626;2024-02-21T02:25:38;99994.31;;;4.98;100.00
11605;BME280;5858;43.076;25.626;2024-02-21T02:28:06;99881.34;;;4.35;100.00
11605;BME280;5858;43.076;25.626;2024-02-21T02:30:33;99993.50;;;5.07;100.00
11605;BME280;5858;43.076;25.626;2024-02-21T02:33:02;99956.09;;;4.80;100.00
11605;BME280;5858;43.076;25.626;2024-02-21T02:35:28;99978.41;;;4.98;100.00
11605;BME280;5858;43.076;25.626;2024-02-21T02:37:55;99979.38;;;4.97;100.00
11605;BME280;5858;43.076;25.626;2024-02-21T02:40:23;100004.16;;;5.17;100.00
11605;BME280;5858;43.076;25.626;2024-02-21T02:42:51;99996.91;;;5.19;100.00
11605;BME280;5858;43.076;25.626;2024-02-21T02:45:21;99981.81;;;5.10;100.00
11605;BME280;5858;43.076;25.626;2024-02-21T02:47:49;99910.06;;;4.60;100.00
11605;BME280;5858;43.076;25.626;2024-02-21T02:50:16;100007.72;;;5.27;100.00
11605;BME280;5858;43.076;25.626;2024-02-21T02:52:43;99956.78;;;5.03;100.00
11605;BME280;5858;43.076;25.626;2024-02-21T02:55:09;99913.97;;;4.77;100.00
11605;BME280;5858;43.076;25.626;2024-02-21T02:57:36;100005.66;;;5.31;100.00
11605;BME280;5858;43.076;25.626;2024-02-21T03:00:08;99929.28;;;4.73;100.00
11605;BME280;5858;43.076;25.626;2024-02-21T03:02:38;99975.53;;;5.11;100.00
11605;BME280;5858;43.076;25.626;2024-02-21T03:05:12;99994.53;;;5.16;100.00
11605;BME280;5858;43.076;25.626;2024-02-21T03:07:39;99979.84;;;5.12;100.00
11605;BME280;5858;43.076;25.626;2024-02-21T03:10:07;100008.84;;;5.25;100.00
11605;BME280;5858;43.076;25.626;2024-02-21T03:12:34;99891.34;;;4.52;100.00
11605;BME280;5858;43.076;25.626;2024-02-21T03:15:01;99947.84;;;4.73;100.00
11605;BME280;5858;43.076;25.626;2024-02-21T03:17:29;99979.09;;;5.00;100.00
11605;BME280;5858;43.076;25.626;2024-02-21T03:19:57;99886.44;;;4.48;100.00
11605;BME280;5858;43.076;25.626;2024-02-21T03:22:24;100010.09;;;5.21;100.00
11605;BME280;5858;43.076;25.626;2024-02-21T03:24:51;99998.16;;;5.15;100.00
11605;BME280;5858;43.076;25.626;2024-02-21T03:27:17;100009.41;;;5.28;100.00
11605;BME280;5858;43.076;25.626;2024-02-21T03:29:44;99838.69;;;4.17;100.00
11605;BME280;5858;43.076;25.626;2024-02-21T03:32:11;99922.09;;;4.85;100.00
11605;BME280;5858;43.076;25.626;2024-02-21T03:34:39;100007.78;;;5.37;100.00
11605;BME280;5858;43.076;25.626;2024-02-21T03:37:06;99989.28;;;5.26;100.00
11605;BME280;5858;43.076;25.626;2024-02-21T03:39:33;99995.91;;;5.11;100.00
11605;BME280;5858;43.076;25.626;2024-02-21T03:42:03;99940.91;;;4.82;100.00
11605;BME280;5858;43.076;25.626;2024-02-21T03:44:31;99976.75;;;5.07;100.00
11605;BME280;5858;43.076;25.626;2024-02-21T03:46:58;99953.41;;;5.01;100.00
11605;BME280;5858;43.076;25.626;2024-02-21T03:49:25;99999.06;;;5.25;100.00
11605;BME280;5858;43.076;25.626;2024-02-21T03:51:56;99998.53;;;5.31;100.00
11605;BME280;5858;43.076;25.626;2024-02-21T03:54:24;99993.56;;;5.17;100.00
11605;BME280;5858;43.076;25.626;2024-02-21T03:56:50;100001.63;;;5.36;100.00
11605;BME280;5858;43.076;25.626;2024-02-21T03:59:18;99914.41;;;4.82;100.00
11605;BME280;5858;43.076;25.626;2024-02-21T04:01:45;99989.59;;;5.32;100.00
11605;BME280;5858;43.076;25.626;2024-02-21T04:04:12;99961.03;;;5.15;100.00
11605;BME280;5858;43.076;25.626;2024-02-21T04:06:46;100005.81;;;5.39;100.00
11605;BME280;5858;43.076;25.626;2024-02-21T04:09:15;99867.09;;;4.57;100.00
11605;BME280;5858;43.076;25.626;2024-02-21T04:11:45;99990.84;;;5.28;100.00
11605;BME280;5858;43.076;25.626;2024-02-21T04:14:12;99859.69;;;4.51;100.00
11605;BME280;5858;43.076;25.626;2024-02-21T04:16:42;99948.03;;;4.82;100.00
11605;BME280;5858;43.076;25.626;2024-02-21T04:19:09;99885.00;;;4.43;100.00
11605;BME280;5858;43.076;25.626;2024-02-21T04:21:35;99952.31;;;4.73;100.00
11605;BME280;5858;43.076;25.626;2024-02-21T04:24:02;100012.53;;;5.13;100.00
11605;BME280;5858;43.076;25.626;2024-02-21T04:26:32;99951.19;;;4.76;100.00
11605;BME280;5858;43.076;25.626;2024-02-21T04:28:59;100000.75;;;5.05;100.00
11605;BME280;5858;43.076;25.626;2024-02-21T04:31:26;100004.38;;;5.04;100.00
11605;BME280;5858;43.076;25.626;2024-02-21T04:33:52;99989.25;;;4.95;100.00
11605;BME280;5858;43.076;25.626;2024-02-21T04:36:20;99999.03;;;4.95;100.00
11605;BME280;5858;43.076;25.626;2024-02-21T04:38:46;100000.72;;;4.96;100.00
11605;BME280;5858;43.076;25.626;2024-02-21T04:41:14;99927.28;;;4.45;100.00
11605;BME280;5858;43.076;25.626;2024-02-21T04:43:42;99949.50;;;4.54;100.00
11605;BME280;5858;43.076;25.626;2024-02-21T04:46:09;99996.00;;;4.79;100.00
11605;BME280;5858;43.076;25.626;2024-02-21T04:48:36;100001.31;;;4.79;100.00
11605;BME280;5858;43.076;25.626;2024-02-21T04:51:04;99997.38;;;4.73;100.00
11605;BME280;5858;43.076;25.626;2024-02-21T04:53:30;99931.00;;;4.22;100.00
11605;BME280;5858;43.076;25.626;2024-02-21T04:55:57;100009.53;;;4.76;100.00
11605;BME280;5858;43.076;25.626;2024-02-21T04:58:24;99931.56;;;4.25;100.00
11605;BME280;5858;43.076;25.626;2024-02-21T05:00:53;99987.13;;;4.48;100.00
11605;BME280;5858;43.076;25.626;2024-02-21T05:03:20;99945.25;;;4.09;100.00
11605;BME280;5858;43.076;25.626;2024-02-21T05:05:47;99959.88;;;4.25;100.00
11605;BME280;5858;43.076;25.626;2024-02-21T05:08:14;100029.97;;;4.53;100.00
11605;BME280;5858;43.076;25.626;2024-02-21T05:10:41;100023.50;;;4.46;100.00
11605;BME280;5858;43.076;25.626;2024-02-21T05:13:08;100000.34;;;4.27;100.00
11605;BME280;5858;43.076;25.626;2024-02-21T05:15:35;100031.72;;;4.42;100.00
11605;BME280;5858;43.076;25.626;2024-02-21T05:18:04;100017.44;;;4.23;100.00
11605;BME280;5858;43.076;25.626;2024-02-21T05:20:31;100012.50;;;4.29;100.00
11605;BME280;5858;43.076;25.626;2024-02-21T05:22:57;99947.28;;;3.85;100.00
11605;BME280;5858;43.076;25.626;2024-02-21T05:25:24;99999.72;;;4.23;100.00
11605;BME280;5858;43.076;25.626;2024-02-21T05:27:51;100033.91;;;4.37;100.00
11605;BME280;5858;43.076;25.626;2024-02-21T05:30:21;99986.66;;;4.10;100.00
11605;BME280;5858;43.076;25.626;2024-02-21T05:32:48;99958.84;;;3.84;100.00
11605;BME280;5858;43.076;25.626;2024-02-21T05:35:16;100041.88;;;4.58;100.00
11605;BME280;5858;43.076;25.626;2024-02-21T05:37:43;100022.63;;;4.56;100.00
11605;BME280;5858;43.076;25.626;2024-02-21T05:40:12;99997.09;;;4.23;100.00
11605;BME280;5858;43.076;25.626;2024-02-21T05:42:39;100020.88;;;4.66;100.00
11605;BME280;5858;43.076;25.626;2024-02-21T05:45:07;100049.53;;;4.93;100.00
11605;BME280;5858;43.076;25.626;2024-02-21T05:47:34;100080.47;;;5.04;100.00
11605;BME280;5858;43.076;25.626;2024-02-21T05:50:01;100004.34;;;4.74;100.00
11605;BME280;5858;43.076;25.626;2024-02-21T05:52:29;100064.34;;;5.17;100.00
11605;BME280;5858;43.076;25.626;2024-02-21T05:54:59;99878.34;;;4.07;100.00
11605;BME280;5858;43.076;25.626;2024-02-21T05:57:35;100055.94;;;5.12;100.00
11605;BME280;5858;43.076;25.626;2024-02-21T06:00:06;99995.13;;;4.57;100.00
11605;BME280;5858;43.076;25.626;2024-02-21T06:02:33;100052.38;;;5.01;100.00
11605;BME280;5858;43.076;25.626;2024-02-21T06:05:00;100010.94;;;4.80;100.00
11605;BME280;5858;43.076;25.626;2024-02-21T06:07:29;99957.66;;;4.62;100.00
11605;BME280;5858;43.076;25.626;2024-02-21T06:09:55;99973.81;;;4.59;100.00
11605;BME280;5858;43.076;25.626;2024-02-21T06:12:22;100079.66;;;5.55;100.00
11605;BME280;5858;43.076;25.626;2024-02-21T06:14:49;100019.31;;;5.26;100.00
11605;BME280;5858;43.076;25.626;2024-02-21T06:17:16;100080.63;;;5.84;100.00
11605;BME280;5858;43.076;25.626;2024-02-21T06:19:43;100019.47;;;5.65;100.00
11605;BME280;5858;43.076;25.626;2024-02-21T06:22:11;100038.91;;;5.96;100.00
11605;BME280;5858;43.076;25.626;2024-02-21T06:24:40;99979.91;;;5.92;100.00
11605;BME280;5858;43.076;25.626;2024-02-21T06:27:07;99960.19;;;6.05;100.00
11605;BME280;5858;43.076;25.626;2024-02-21T06:29:34;100049.91;;;6.80;100.00
11605;BME280;5858;43.076;25.626;2024-02-21T06:32:02;100074.94;;;7.06;100.00
11605;BME280;5858;43.076;25.626;2024-02-21T06:34:29;100083.03;;;7.34;100.00
11605;BME280;5858;43.076;25.626;2024-02-21T06:36:59;100081.31;;;7.42;100.00
11605;BME280;5858;43.076;25.626;2024-02-21T06:39:26;100109.31;;;7.46;100.00
11605;BME280;5858;43.076;25.626;2024-02-21T06:41:55;100012.88;;;7.06;100.00
11605;BME280;5858;43.076;25.626;2024-02-21T06:44:23;99994.97;;;6.98;100.00
11605;BME280;5858;43.076;25.626;2024-02-21T06:46:50;100062.72;;;7.33;100.00
11605;BME280;5858;43.076;25.626;2024-02-21T06:49:17;100011.06;;;7.06;100.00
11605;BME280;5858;43.076;25.626;2024-02-21T06:51:44;100025.22;;;7.16;100.00
11605;BME280;5858;43.076;25.626;2024-02-21T06:54:13;99982.41;;;6.90;100.00
11605;BME280;5858;43.076;25.626;2024-02-21T06:56:43;99939.88;;;6.61;100.00
11605;BME280;5858;43.076;25.626;2024-02-21T06:59:11;100043.66;;;7.28;100.00
11605;BME280;5858;43.076;25.626;2024-02-21T07:01:45;100002.38;;;7.04;100.00
11605;BME280;5858;43.076;25.626;2024-02-21T07:04:12;100082.31;;;7.78;100.00
11605;BME280;5858;43.076;25.626;2024-02-21T07:06:38;100100.03;;;7.97;100.00
11605;BME280;5858;43.076;25.626;2024-02-21T07:09:15;99965.63;;;7.27;100.00
11605;BME280;5858;43.076;25.626;2024-02-21T07:11:43;99877.97;;;6.88;99.89
11605;BME280;5858;43.076;25.626;2024-02-21T07:14:11;99950.34;;;7.29;100.00
11605;BME280;5858;43.076;25.626;2024-02-21T07:16:38;100021.75;;;7.43;100.00
11605;BME280;5858;43.076;25.626;2024-02-21T07:19:05;100003.00;;;7.35;100.00
11605;BME280;5858;43.076;25.626;2024-02-21T07:21:32;99955.03;;;7.08;100.00
11605;BME280;5858;43.076;25.626;2024-02-21T07:23:59;100048.00;;;7.75;100.00
11605;BME280;5858;43.076;25.626;2024-02-21T07:26:26;99974.59;;;7.26;100.00
11605;BME280;5858;43.076;25.626;2024-02-21T07:28:52;100062.28;;;7.74;100.00
11605;BME280;5858;43.076;25.626;2024-02-21T07:31:21;100034.97;;;7.72;100.00
11605;BME280;5858;43.076;25.626;2024-02-21T07:33:48;100020.22;;;7.78;100.00
11605;BME280;5858;43.076;25.626;2024-02-21T07:36:15;99911.72;;;7.25;99.96
11605;BME280;5858;43.076;25.626;2024-02-21T07:38:43;99931.53;;;7.13;98.11
11605;BME280;5858;43.076;25.626;2024-02-21T07:41:13;99904.09;;;7.03;98.90
11605;BME280;5858;43.076;25.626;2024-02-21T07:43:41;100035.78;;;8.00;98.57
11605;BME280;5858;43.076;25.626;2024-02-21T07:46:08;99971.13;;;7.53;98.36
11605;BME280;5858;43.076;25.626;2024-02-21T07:48:39;100090.53;;;8.49;98.91
11605;BME280;5858;43.076;25.626;2024-02-21T07:51:06;100092.91;;;8.70;98.17
11605;BME280;5858;43.076;25.626;2024-02-21T07:53:33;100070.03;;;8.68;97.53
11605;BME280;5858;43.076;25.626;2024-02-21T07:56:02;99880.19;;;7.48;95.83
11605;BME280;5858;43.076;25.626;2024-02-21T07:58:31;99916.09;;;7.89;96.37
11605;BME280;5858;43.076;25.626;2024-02-21T08:00:58;100003.44;;;8.58;95.50
11605;BME280;5858;43.076;25.626;2024-02-21T08:03:25;99903.16;;;8.30;94.19
11605;BME280;5858;43.076;25.626;2024-02-21T08:05:54;99934.00;;;8.50;93.46
11605;BME280;5858;43.076;25.626;2024-02-21T08:08:21;100072.09;;;9.61;93.68
11605;BME280;5858;43.076;25.626;2024-02-21T08:10:48;100088.75;;;9.55;91.14
11605;BME280;5858;43.076;25.626;2024-02-21T08:13:18;100052.91;;;9.40;91.70
11605;BME280;5858;43.076;25.626;2024-02-21T08:15:46;100080.13;;;9.61;91.88
11605;BME280;5858;43.076;25.626;2024-02-21T08:18:13;100075.41;;;9.89;91.65
11605;BME280;5858;43.076;25.626;2024-02-21T08:20:41;100057.66;;;9.80;91.65
11605;BME280;5858;43.076;25.626;2024-02-21T08:23:11;100048.22;;;9.94;91.35
11605;BME280;5858;43.076;25.626;2024-02-21T08:25:38;100088.09;;;10.21;89.43
11605;BME280;5858;43.076;25.626;2024-02-21T08:28:08;100036.94;;;9.82;87.20
11605;BME280;5858;43.076;25.626;2024-02-21T08:30:36;100035.31;;;9.89;87.31
11605;BME280;5858;43.076;25.626;2024-02-21T08:33:04;100019.44;;;9.88;86.48
11605;BME280;5858;43.076;25.626;2024-02-21T08:35:52;100083.34;;;10.41;85.39
11605;BME280;5858;43.076;25.626;2024-02-21T08:38:45;99901.50;;;9.40;85.13
11605;BME280;5858;43.076;25.626;2024-02-21T08:44:24;99936.19;;;9.74;83.04
11605;BME280;5858;43.076;25.626;2024-02-21T08:47:13;100069.16;;;10.73;82.88
11605;BME280;5858;43.076;25.626;2024-02-21T08:52:40;100082.38;;;10.75;83.82
11605;BME280;5858;43.076;25.626;2024-02-21T08:55:18;100012.94;;;10.57;83.58
11605;BME280;5858;43.076;25.626;2024-02-21T08:57:54;100083.59;;;10.88;80.33
11605;BME280;5858;43.076;25.626;2024-02-21T09:00:24;99904.16;;;9.91;79.55
11605;BME280;5858;43.076;25.626;2024-02-21T09:09:10;100043.75;;;10.93;74.14
11605;BME280;5858;43.076;25.626;2024-02-21T09:12:00;99967.78;;;10.54;74.96
11605;BME280;5858;43.076;25.626;2024-02-21T09:14:48;100079.72;;;11.48;75.28
11605;BME280;5858;43.076;25.626;2024-02-21T09:17:32;100087.38;;;11.59;75.75
11605;BME280;5858;43.076;25.626;2024-02-21T09:20:15;100071.13;;;11.60;72.38
11605;BME280;5858;43.076;25.626;2024-02-21T09:22:44;100068.63;;;11.59;74.49
11605;BME280;5858;43.076;25.626;2024-02-21T09:25:20;99948.00;;;11.03;73.43
11605;BME280;5858;43.076;25.626;2024-02-21T09:28:53;100035.41;;;11.84;72.00
11605;BME280;5858;43.076;25.626;2024-02-21T09:35:23;99862.22;;;11.28;66.84
11605;BME280;5858;43.076;25.626;2024-02-21T10:22:29;100026.47;;;12.54;58.37
11605;BME280;5858;43.076;25.626;2024-02-21T10:25:15;100048.38;;;12.66;60.37
11605;BME280;5858;43.076;25.626;2024-02-21T10:29:41;99836.56;;;11.33;60.80
11605;BME280;5858;43.076;25.626;2024-02-21T10:31:27;99928.75;;;11.55;61.73
11605;BME280;5858;43.076;25.626;2024-02-21T10:34:35;100000.88;;;11.81;64.32
11605;BME280;5858;43.076;25.626;2024-02-21T10:40:53;99859.38;;;10.74;64.01
11605;BME280;5858;43.076;25.626;2024-02-21T10:45:17;99828.25;;;10.73;64.07
11605;BME280;5858;43.076;25.626;2024-02-21T10:51:29;99967.22;;;12.10;64.74
11605;BME280;5858;43.076;25.626;2024-02-21T10:54:04;99801.50;;;11.12;61.47
11605;BME280;5858;43.076;25.626;2024-02-21T10:56:38;99926.72;;;11.96;61.97
11605;BME280;5858;43.076;25.626;2024-02-21T10:59:18;99872.91;;;11.98;60.94
11605;BME280;5858;43.076;25.626;2024-02-21T11:02:01;99904.44;;;12.19;61.12
11605;BME280;5858;43.076;25.626;2024-02-21T11:08:02;99918.69;;;12.42;60.03
11605;BME280;5858;43.076;25.626;2024-02-21T11:10:56;99949.53;;;12.46;59.97
11605;BME280;5858;43.076;25.626;2024-02-21T11:19:33;99746.25;;;11.65;59.07
11605;BME280;5858;43.076;25.626;2024-02-21T11:22:40;99953.41;;;13.19;58.34
11605;BME280;5858;43.076;25.626;2024-02-21T11:25:23;99873.69;;;13.11;57.09
11605;BME280;5858;43.076;25.626;2024-02-21T11:28:05;99941.50;;;12.84;55.68
11605;BME280;5858;43.076;25.626;2024-02-21T11:30:51;99757.16;;;12.24;57.22
11605;BME280;5858;43.076;25.626;2024-02-21T11:36:55;99915.41;;;13.51;53.38
11605;BME280;5858;43.076;25.626;2024-02-21T11:39:55;99920.63;;;13.89;54.23
11605;BME280;5858;43.076;25.626;2024-02-21T11:42:32;99874.13;;;13.59;55.24
11605;BME280;5858;43.076;25.626;2024-02-21T11:51:43;99884.94;;;13.44;55.03
11605;BME280;5858;43.076;25.626;2024-02-21T11:55:03;99912.22;;;13.63;53.86
11605;BME280;5858;43.076;25.626;2024-02-21T11:58:23;99873.22;;;13.52;54.75
11605;BME280;5858;43.076;25.626;2024-02-21T12:15:24;99804.72;;;13.48;48.57
11605;BME280;5858;43.076;25.626;2024-02-21T12:19:50;99743.31;;;13.15;47.83
11605;BME280;5858;43.076;25.626;2024-02-21T12:22:24;99822.72;;;13.69;48.16
11605;BME280;5858;43.076;25.626;2024-02-21T12:25:58;99807.94;;;13.58;48.06
11605;BME280;5858;43.076;25.626;2024-02-21T12:35:42;99899.13;;;14.10;48.62
11605;BME280;5858;43.076;25.626;2024-02-21T12:38:16;99843.56;;;13.81;49.18
11605;BME280;5858;43.076;25.626;2024-02-21T12:41:00;99725.66;;;13.06;48.94
11605;BME280;5858;43.076;25.626;2024-02-21T12:54:04;99757.78;;;13.29;49.30
11605;BME280;5858;43.076;25.626;2024-02-21T12:56:42;99780.09;;;13.66;49.97
11605;BME280;5858;43.076;25.626;2024-02-21T12:59:18;99865.59;;;14.13;48.23
11605;BME280;5858;43.076;25.626;2024-02-21T13:02:26;99711.25;;;12.92;47.08
11605;BME280;5858;43.076;25.626;2024-02-21T13:08:29;99691.09;;;12.82;47.07
11605;BME280;5858;43.076;25.626;2024-02-21T13:11:12;99812.44;;;13.36;48.37
11605;BME280;5858;43.076;25.626;2024-02-21T13:13:56;99718.13;;;12.80;48.74
11605;BME280;5858;43.076;25.626;2024-02-21T13:17:06;99734.72;;;13.20;48.57
11605;BME280;5858;43.076;25.626;2024-02-21T13:20:32;99704.72;;;13.02;48.03
11605;BME280;5858;43.076;25.626;2024-02-21T13:23:45;99839.09;;;13.89;47.70
11605;BME280;5858;43.076;25.626;2024-02-21T13:40:25;99839.84;;;14.04;47.54
11605;BME280;5858;43.076;25.626;2024-02-21T13:54:33;99796.84;;;13.46;48.76
11605;BME280;5858;43.076;25.626;2024-02-21T13:57:05;99701.84;;;12.52;51.58
11605;BME280;5858;43.076;25.626;2024-02-21T13:59:57;99796.28;;;12.85;52.97
11605;BME280;5858;43.076;25.626;2024-02-21T14:02:45;99832.84;;;13.01;53.71
11605;BME280;5858;43.076;25.626;2024-02-21T14:05:26;99790.25;;;12.69;55.44
11605;BME280;5858;43.076;25.626;2024-02-21T14:28:33;99839.41;;;12.54;58.30
11605;BME280;5858;43.076;25.626;2024-02-21T14:32:03;99789.81;;;12.27;58.10
11605;BME280;5858;43.076;25.626;2024-02-21T14:35:29;99624.91;;;11.33;56.93
11605;BME280;5858;43.076;25.626;2024-02-21T14:42:15;99769.72;;;12.09;57.76
11605;BME280;5858;43.076;25.626;2024-02-21T14:45:43;99807.19;;;12.17;58.70
11605;BME280;5858;43.076;25.626;2024-02-21T14:49:20;99699.53;;;11.45;58.63
11605;BME280;5858;43.076;25.626;2024-02-21T14:55:27;99715.31;;;11.40;59.56
11605;BME280;5858;43.076;25.626;2024-02-21T15:59:22;99755.84;;;10.66;64.88
11605;BME280;5858;43.076;25.626;2024-02-21T16:08:41;99819.28;;;11.05;65.69
11605;BME280;5858;43.076;25.626;2024-02-21T16:58:55;99722.91;;;9.70;73.60
11605;BME280;5858;43.076;25.626;2024-02-21T17:01:34;99659.81;;;9.20;73.76
11605;BME280;5858;43.076;25.626;2024-02-21T17:04:20;99688.34;;;9.44;74.29
11605;BME280;5858;43.076;25.626;2024-02-21T17:07:08;99751.97;;;9.73;74.83
11605;BME280;5858;43.076;25.626;2024-02-21T17:10:00;99891.03;;;10.54;74.90
11605;BME280;5858;43.076;25.626;2024-02-21T17:12:49;99700.84;;;9.35;75.60
11605;BME280;5858;43.076;25.626;2024-02-21T17:15:25;99844.72;;;10.21;75.65
11605;BME280;5858;43.076;25.626;2024-02-21T17:17:53;99720.88;;;9.39;77.82
11605;BME280;5858;43.076;25.626;2024-02-21T17:20:20;99701.19;;;9.32;78.76
11605;BME280;5858;43.076;25.626;2024-02-21T17:22:53;99777.69;;;9.74;80.37
11605;BME280;5858;43.076;25.626;2024-02-21T17:25:27;99805.41;;;9.89;82.11
11605;BME280;5858;43.076;25.626;2024-02-21T17:27:56;99821.81;;;9.94;83.70
11605;BME280;5858;43.076;25.626;2024-02-21T17:30:25;99901.56;;;10.31;85.50
11605;BME280;5858;43.076;25.626;2024-02-21T18:47:41;99877.47;;;8.29;100.00
11605;BME280;5858;43.076;25.626;2024-02-21T18:54:20;99771.56;;;7.34;100.00
11605;BME280;5858;43.076;25.626;2024-02-21T18:57:54;99957.41;;;8.56;100.00
11605;BME280;5858;43.076;25.626;2024-02-21T19:03:33;99946.22;;;8.35;100.00
11605;BME280;5858;43.076;25.626;2024-02-21T19:11:39;99822.22;;;7.42;100.00
11605;BME280;5858;43.076;25.626;2024-02-21T19:21:11;99910.00;;;7.79;100.00
11605;BME280;5858;43.076;25.626;2024-02-21T19:30:22;99977.88;;;8.20;100.00
11605;BME280;5858;43.076;25.626;2024-02-21T19:37:23;99789.63;;;6.85;100.00
11605;BME280;5858;43.076;25.626;2024-02-21T19:50:23;99932.78;;;8.09;100.00
11605;BME280;5858;43.076;25.626;2024-02-21T21:06:20;99975.25;;;8.56;100.00
11605;BME280;5858;43.076;25.626;2024-02-21T21:16:29;99966.25;;;8.39;100.00
11605;BME280;5858;43.076;25.626;2024-02-21T21:25:41;99893.94;;;7.71;100.00
11605;BME280;5858;43.076;25.626;2024-02-21T21:32:21;99892.50;;;7.49;100.00
11605;BME280;5858;43.076;25.626;2024-02-21T21:35:37;99886.13;;;7.14;100.00
11605;BME280;5858;43.076;25.626;2024-02-21T21:42:11;99785.56;;;6.53;100.00
11605;BME280;5858;43.076;25.626;2024-02-21T21:58:13;99962.72;;;7.48;100.00
11605;BME280;5858;43.076;25.626;2024-02-21T22:01:26;99973.00;;;7.43;100.00
11605;BME280;5858;43.076;25.626;2024-02-21T22:04:44;99950.91;;;7.33;100.00
11605;BME280;5858;43.076;25.626;2024-02-21T22:07:55;99949.53;;;7.29;100.00
11605;BME280;5858;43.076;25.626;2024-02-21T22:11:32;99939.41;;;7.32;100.00
11605;BME280;5858;43.076;25.626;2024-02-21T22:14:33;99819.50;;;6.32;100.00